Time;durP1;ratioP1;P1;durP2;ratioP2;P2;SDS_P1;SDS_P2;PMS_P1;PMS_P2;Temp;Humidity;BMP_temperature;BMP_pressure;BME280_temperature;BME280_humidity;BME280_pressure;Samples;Min_cycle;Max_cycle;Signal;HPM_P1;HPM_P2
2023/11/10 00:00:13;;;;;;;;;;;;;;;9.72;86.83;99627.75;4026725;29;20032;-69
2023/11/10 00:02:17;;;;;;;;;;;;;;;9.71;86.49;99619.84;4026851;29;20018;-69
2023/11/10 00:04:20;;;;;;;;;;;;;;;9.69;86.88;99627.31;4026913;29;20024;-69
2023/11/10 00:06:21;;;;;;;;;;;;;;;9.69;86.63;99627.31;4025612;29;20019;-68
2023/11/10 00:08:24;;;;;;;;;;;;;;;9.68;86.46;99620.25;4026662;29;20039;-69
2023/11/10 00:10:26;;;;;;;;;;;;;;;9.67;86.71;99614.03;4025726;29;20023;-68
2023/11/10 00:12:28;;;;;;;;;;;;;;;9.64;86.88;99622.50;4025969;29;20023;-69
2023/11/10 00:14:30;;;;;;;;;;;;;;;9.65;86.62;99612.56;4026743;29;20014;-69
2023/11/10 00:16:31;;;;;;;;;;;;;;;9.64;86.52;99609.03;4027135;29;19955;-67
2023/11/10 00:18:35;;;;;;;;;;;;;;;9.65;86.34;99607.16;4027421;29;20642;-69
2023/11/10 00:20:36;;;;;;;;;;;;;;;9.64;86.33;99610.88;4026674;29;20023;-69
2023/11/10 00:22:39;;;;;;;;;;;;;;;9.62;86.51;99611.06;4026599;29;20066;-69
2023/11/10 00:24:44;;;;;;;;;;;;;;;9.62;86.57;99608.38;4026752;29;20376;-69
2023/11/10 00:26:45;;;;;;;;;;;;;;;9.61;86.36;99604.03;4026729;29;20024;-68
2023/11/10 00:28:47;;;;;;;;;;;;;;;9.60;86.24;99602.38;4026116;29;19928;-68
2023/11/10 00:30:49;;;;;;;;;;;;;;;9.58;86.12;99604.44;4026553;29;20031;-69
2023/11/10 00:32:51;;;;;;;;;;;;;;;9.55;86.41;99605.66;4025269;29;20382;-69
2023/11/10 00:34:54;;;;;;;;;;;;;;;9.55;86.38;99604.84;4027099;29;20058;-68
2023/11/10 00:36:56;;;;;;;;;;;;;;;9.54;86.13;99606.72;4025892;29;19928;-69
2023/11/10 00:38:58;;;;;;;;;;;;;;;9.53;85.88;99605.03;4026501;29;20018;-69
2023/11/10 00:41:00;;;;;;;;;;;;;;;9.51;85.87;99600.84;4027037;29;20030;-69
2023/11/10 00:43:02;;;;;;;;;;;;;;;9.50;86.12;99596.50;4024464;29;20019;-69
2023/11/10 00:45:03;;;;;;;;;;;;;;;9.48;86.02;99593.16;4025006;29;20543;-69
2023/11/10 00:47:05;;;;;;;;;;;;;;;9.46;86.08;99590.66;4027691;29;20038;-69
2023/11/10 00:49:09;;;;;;;;;;;;;;;9.46;85.83;99593.38;4029038;29;20014;-69
2023/11/10 00:51:12;;;;;;;;;;;;;;;9.45;86.02;99591.72;4028146;29;20015;-69
2023/11/10 00:53:15;;;;;;;;;;;;;;;9.43;85.99;99587.53;4029140;29;20022;-69
2023/11/10 00:55:17;;;;;;;;;;;;;;;9.42;85.86;99599.34;4029318;29;20031;-69
2023/11/10 00:57:19;;;;;;;;;;;;;;;9.41;85.92;99598.53;4029581;29;20342;-68
2023/11/10 00:59:21;;;;;;;;;;;;;;;9.40;85.87;99596.84;4027501;29;20039;-69
2023/11/10 01:01:23;;;;;;;;;;;;;;;9.38;85.85;99602.44;4028467;29;20018;-70
2023/11/10 01:03:26;;;;;;;;;;;;;;;9.36;85.61;99603.69;4043622;29;20022;-68
2023/11/10 01:05:28;;;;;;;;;;;;;;;9.36;85.47;99599.13;4012598;29;20387;-69
2023/11/10 01:07:31;;;;;;;;;;;;;;;9.35;85.58;99610.91;4013538;29;20023;-69
2023/11/10 01:09:33;;;;;;;;;;;;;;;9.32;85.52;99600.53;4028972;29;20051;-67
2023/11/10 01:11:35;;;;;;;;;;;;;;;9.31;85.59;99600.72;4028842;29;20115;-68
2023/11/10 01:13:37;;;;;;;;;;;;;;;9.29;85.53;99595.53;4028998;29;20607;-69
2023/11/10 01:15:39;;;;;;;;;;;;;;;9.29;85.21;99590.13;4028929;29;20023;-69
2023/11/10 01:17:41;;;;;;;;;;;;;;;9.27;85.19;99586.81;4029702;29;20499;-67
2023/11/10 01:19:43;;;;;;;;;;;;;;;9.26;85.13;99589.72;4028584;29;20031;-68
2023/11/10 01:21:46;;;;;;;;;;;;;;;9.25;85.09;99593.41;4027313;29;20622;-68
2023/11/10 01:23:52;;;;;;;;;;;;;;;9.23;84.75;99596.31;4027892;29;20023;-69
2023/11/10 01:25:54;;;;;;;;;;;;;;;9.20;84.97;99591.34;4029937;29;20055;-68
2023/11/10 01:27:56;;;;;;;;;;;;;;;9.20;84.96;99583.25;4029207;29;20015;-69
2023/11/10 01:29:57;;;;;;;;;;;;;;;9.18;84.61;99574.53;4027523;29;20035;-68
2023/11/10 01:32:00;;;;;;;;;;;;;;;9.17;84.75;99578.28;4042568;29;20026;-69
2023/11/10 01:34:02;;;;;;;;;;;;;;;9.16;84.67;99582.81;4042037;29;20170;-68
2023/11/10 01:36:04;;;;;;;;;;;;;;;9.15;84.47;99566.84;4028320;29;20018;-69
2023/11/10 01:38:08;;;;;;;;;;;;;;;9.14;84.14;99578.66;4029641;29;20014;-70
2023/11/10 01:40:11;;;;;;;;;;;;;;;9.15;83.99;99585.69;4042750;29;20026;-69
2023/11/10 01:42:14;;;;;;;;;;;;;;;9.13;84.03;99580.50;4028964;29;20027;-70
2023/11/10 01:44:16;;;;;;;;;;;;;;;9.11;83.77;99577.19;4029663;29;20467;-69
2023/11/10 01:46:32;;;;;;;;;;;;;;;9.10;83.97;99577.38;4027654;29;19931;-67
2023/11/10 01:48:35;;;;;;;;;;;;;;;9.08;83.60;99569.50;4010735;29;20092;-69
2023/11/10 01:50:36;;;;;;;;;;;;;;;9.09;83.31;99564.94;4029228;29;20023;-68
2023/11/10 01:52:39;;;;;;;;;;;;;;;9.08;83.58;99557.91;4029257;29;20015;-69
2023/11/10 01:54:41;;;;;;;;;;;;;;;9.06;83.48;99568.88;4041440;29;20027;-69
2023/11/10 01:56:46;;;;;;;;;;;;;;;9.05;83.32;99575.25;4028994;29;20030;-68
2023/11/10 01:58:49;;;;;;;;;;;;;;;9.05;83.03;99575.25;4042589;29;20108;-67
2023/11/10 02:00:50;;;;;;;;;;;;;;;9.05;82.96;99569.88;4026813;29;20204;-69
2023/11/10 02:02:53;;;;;;;;;;;;;;;9.05;82.84;99571.75;4041656;29;20022;-69
2023/11/10 02:04:56;;;;;;;;;;;;;;;9.04;82.72;99567.38;4029012;29;20366;-69
2023/11/10 02:06:58;;;;;;;;;;;;;;;9.04;82.53;99559.31;4027247;29;20015;-69
2023/11/10 02:09:00;;;;;;;;;;;;;;;9.02;82.74;99563.00;4042082;29;20026;-69
2023/11/10 02:11:01;;;;;;;;;;;;;;;9.01;82.51;99566.75;4027631;29;20059;-69
2023/11/10 02:13:05;;;;;;;;;;;;;;;9.00;82.47;99559.69;4026911;29;20046;-68
2023/11/10 02:15:08;;;;;;;;;;;;;;;8.98;82.20;99575.22;4029118;29;20399;-68
2023/11/10 02:17:09;;;;;;;;;;;;;;;8.99;82.27;99576.03;4042802;29;20026;-69
2023/11/10 02:19:14;;;;;;;;;;;;;;;8.96;82.21;99571.88;4027530;29;19935;-69
2023/11/10 02:21:17;;;;;;;;;;;;;;;8.96;82.31;99568.34;4011805;29;20022;-68
2023/11/10 02:23:19;;;;;;;;;;;;;;;8.95;81.96;99562.16;4028532;29;20459;-69
2023/11/10 02:25:22;;;;;;;;;;;;;;;8.93;82.20;99547.19;4026941;29;20030;-69
2023/11/10 02:27:24;;;;;;;;;;;;;;;8.93;82.10;99550.72;4012057;29;20031;-69
2023/11/10 02:29:26;;;;;;;;;;;;;;;8.91;81.93;99542.00;3997123;29;20019;-69
2023/11/10 02:31:27;;;;;;;;;;;;;;;8.90;81.80;99532.25;4028424;29;20018;-69
2023/11/10 02:33:29;;;;;;;;;;;;;;;8.89;82.13;99536.00;4027037;29;19982;-69
2023/11/10 02:35:31;;;;;;;;;;;;;;;8.89;81.92;99536.00;4028645;29;20027;-68
2023/11/10 02:37:33;;;;;;;;;;;;;;;8.87;81.52;99537.22;4029161;29;20617;-70
2023/11/10 02:39:36;;;;;;;;;;;;;;;8.88;81.52;99533.50;4026620;29;19984;-70
2023/11/10 02:41:39;;;;;;;;;;;;;;;8.88;81.58;99538.88;4027425;29;20368;-68
2023/11/10 02:43:41;;;;;;;;;;;;;;;8.87;81.37;99542.59;4041612;29;20018;-69
2023/11/10 02:45:43;;;;;;;;;;;;;;;8.85;81.58;99532.03;4028381;29;20022;-69
2023/11/10 02:47:45;;;;;;;;;;;;;;;8.83;81.54;99526.84;4024479;29;20012;-69
2023/11/10 02:49:46;;;;;;;;;;;;;;;8.84;81.53;99525.00;4027431;29;20019;-70
2023/11/10 02:51:49;;;;;;;;;;;;;;;8.83;81.27;99523.31;4028084;29;20015;-69
2023/11/10 02:53:52;;;;;;;;;;;;;;;8.81;81.46;99526.22;4027046;29;20019;-69
2023/11/10 02:55:53;;;;;;;;;;;;;;;8.78;81.60;99513.13;4027929;29;20015;-69
2023/11/10 02:57:56;;;;;;;;;;;;;;;8.78;81.49;99506.94;4027606;29;20015;-69
2023/11/10 03:00:00;;;;;;;;;;;;;;;8.78;81.58;99499.69;4027323;29;19940;-69
2023/11/10 03:02:02;;;;;;;;;;;;;;;8.75;81.64;99494.69;4041999;29;20022;-69
2023/11/10 03:04:04;;;;;;;;;;;;;;;8.74;81.65;99486.78;4027726;29;20018;-69
2023/11/10 03:06:06;;;;;;;;;;;;;;;8.74;81.71;99494.88;4042301;29;20026;-69
2023/11/10 03:08:08;;;;;;;;;;;;;;;8.72;81.87;99491.56;4027183;29;20016;-69
2023/11/10 03:10:11;;;;;;;;;;;;;;;8.71;81.64;99500.66;4027401;29;20026;-69
2023/11/10 03:12:14;;;;;;;;;;;;;;;8.68;81.85;99499.16;4027629;29;20031;-69
2023/11/10 03:14:16;;;;;;;;;;;;;;;8.66;81.68;99501.22;4041736;29;20019;-69
2023/11/10 03:16:18;;;;;;;;;;;;;;;8.64;81.79;99493.34;4027842;29;20022;-69
2023/11/10 03:18:20;;;;;;;;;;;;;;;8.64;81.75;99481.75;4028112;29;20015;-68
2023/11/10 03:20:23;;;;;;;;;;;;;;;8.61;81.68;99482.97;4027051;29;19936;-68
2023/11/10 03:22:25;;;;;;;;;;;;;;;8.61;81.83;99476.78;4026826;29;20046;-70
2023/11/10 03:24:27;;;;;;;;;;;;;;;8.59;81.58;99478.81;4026632;29;20031;-68
2023/11/10 03:26:29;;;;;;;;;;;;;;;8.57;82.01;99473.63;4041798;29;19967;-70
2023/11/10 03:28:31;;;;;;;;;;;;;;;8.58;81.84;99485.22;4027925;29;20018;-69
2023/11/10 03:30:35;;;;;;;;;;;;;;;8.55;81.68;99483.75;4027560;29;20019;-69
2023/11/10 03:32:36;;;;;;;;;;;;;;;8.55;81.95;99488.31;4026983;29;20027;-69
2023/11/10 03:34:39;;;;;;;;;;;;;;;8.53;81.81;99485.81;4027724;29;20019;-67
2023/11/10 03:36:41;;;;;;;;;;;;;;;8.52;81.55;99494.09;4041572;29;20030;-69
2023/11/10 03:38:45;;;;;;;;;;;;;;;8.50;81.85;99501.53;4027592;29;20023;-69
2023/11/10 03:40:49;;;;;;;;;;;;;;;8.50;82.07;99507.72;4027746;29;20035;-68
2023/11/10 03:42:50;;;;;;;;;;;;;;;8.48;81.97;99507.91;4027446;29;19963;-69
2023/11/10 03:44:51;;;;;;;;;;;;;;;8.48;81.69;99493.66;4027275;29;20456;-69
2023/11/10 03:46:55;;;;;;;;;;;;;;;8.47;81.97;99503.56;4026319;29;20089;-69
2023/11/10 03:48:58;;;;;;;;;;;;;;;8.47;81.75;99506.25;4027308;29;20027;-69
2023/11/10 03:50:59;;;;;;;;;;;;;;;8.46;81.96;99501.91;4025577;29;20474;-67
2023/11/10 03:53:02;;;;;;;;;;;;;;;8.46;81.88;99493.00;4025360;29;20026;-68
2023/11/10 03:55:04;;;;;;;;;;;;;;;8.46;81.79;99498.38;4026784;29;20361;-70
2023/11/10 03:57:06;;;;;;;;;;;;;;;8.44;82.02;99498.56;4026648;29;20366;-69
2023/11/10 03:59:07;;;;;;;;;;;;;;;8.45;81.94;99507.50;4027342;29;20018;-68
2023/11/10 04:01:11;;;;;;;;;;;;;;;8.46;81.80;99499.22;4026329;29;19967;-68
2023/11/10 04:03:14;;;;;;;;;;;;;;;8.44;82.03;99501.25;4027011;29;20023;-69
2023/11/10 04:05:16;;;;;;;;;;;;;;;8.43;82.01;99505.00;4026730;29;20477;-70
2023/11/10 04:07:18;;;;;;;;;;;;;;;8.43;82.05;99504.09;4026921;29;20022;-70
2023/11/10 04:09:20;;;;;;;;;;;;;;;8.40;82.23;99497.28;4027059;29;20034;-69
2023/11/10 04:11:23;;;;;;;;;;;;;;;8.39;82.33;99492.91;4026826;29;20030;-68
2023/11/10 04:13:24;;;;;;;;;;;;;;;8.38;82.31;99490.41;4026623;29;20026;-69
2023/11/10 04:15:26;;;;;;;;;;;;;;;8.37;82.51;99496.81;4027190;29;20522;-68
2023/11/10 04:17:28;;;;;;;;;;;;;;;8.37;82.64;99494.97;4009783;29;20027;-69
2023/11/10 04:19:33;;;;;;;;;;;;;;;8.37;82.61;99488.72;4025701;29;20035;-68
2023/11/10 04:21:35;;;;;;;;;;;;;;;8.35;82.60;99483.53;4026896;29;19932;-69
2023/11/10 04:23:36;;;;;;;;;;;;;;;8.36;82.75;99489.78;4026372;29;20015;-69
2023/11/10 04:25:38;;;;;;;;;;;;;;;8.35;82.67;99488.94;4026214;29;19943;-68
2023/11/10 04:27:41;;;;;;;;;;;;;;;8.34;82.97;99497.19;4026012;29;20019;-69
2023/11/10 04:29:43;;;;;;;;;;;;;;;8.34;82.75;99491.81;4026808;29;20027;-69
2023/11/10 04:31:45;;;;;;;;;;;;;;;8.35;83.00;99497.00;4026076;29;20023;-68
2023/11/10 04:33:47;;;;;;;;;;;;;;;8.34;82.86;99487.28;4026401;29;20035;-70
2023/11/10 04:35:51;;;;;;;;;;;;;;;8.34;82.97;99492.66;4025373;29;20050;-70
2023/11/10 04:37:53;;;;;;;;;;;;;;;8.32;82.72;99491.19;4027173;29;20016;-69
2023/11/10 04:39:55;;;;;;;;;;;;;;;8.34;83.12;99497.19;4026079;29;20047;-69
2023/11/10 04:41:57;;;;;;;;;;;;;;;8.32;83.10;99492.00;4026427;29;19934;-69
2023/11/10 04:43:59;;;;;;;;;;;;;;;8.32;83.03;99489.31;4040775;29;20355;-69
2023/11/10 04:46:03;;;;;;;;;;;;;;;8.33;83.39;99493.69;4027158;29;20035;-69
2023/11/10 04:48:05;;;;;;;;;;;;;;;8.34;83.20;99486.44;4026526;29;20637;-69
2023/11/10 04:50:08;;;;;;;;;;;;;;;8.35;83.47;99494.31;4026237;29;20016;-70
2023/11/10 04:52:12;;;;;;;;;;;;;;;8.35;83.33;99498.88;4026516;29;20027;-68
2023/11/10 04:54:14;;;;;;;;;;;;;;;8.36;83.46;99489.78;4026851;29;20471;-69
2023/11/10 04:56:16;;;;;;;;;;;;;;;8.37;83.83;99486.91;4025766;29;20015;-70
2023/11/10 04:58:18;;;;;;;;;;;;;;;8.38;83.85;99491.22;4026504;29;20016;-66
2023/11/10 05:00:23;;;;;;;;;;;;;;;8.39;83.71;99498.28;4026526;29;20035;-68
2023/11/10 05:02:25;;;;;;;;;;;;;;;8.40;83.70;99496.41;4026595;29;20452;-68
2023/11/10 05:04:27;;;;;;;;;;;;;;;8.40;83.87;99502.66;4026307;29;20015;-69
2023/11/10 05:06:29;;;;;;;;;;;;;;;8.42;84.02;99503.28;4026513;29;20026;-69
2023/11/10 05:08:32;;;;;;;;;;;;;;;8.43;84.15;99502.31;4026643;29;20042;-69
2023/11/10 05:10:34;;;;;;;;;;;;;;;8.45;84.26;99507.50;4025652;29;20011;-69
2023/11/10 05:12:37;;;;;;;;;;;;;;;8.45;84.06;99507.50;4025641;29;20022;-67
2023/11/10 05:14:42;;;;;;;;;;;;;;;8.47;84.32;99500.03;4026829;29;20031;-68
2023/11/10 05:16:44;;;;;;;;;;;;;;;8.48;84.44;99504.41;4024681;29;20059;-66
2023/11/10 05:18:46;;;;;;;;;;;;;;;8.50;84.10;99505.03;4026504;29;20364;-68
2023/11/10 05:20:48;;;;;;;;;;;;;;;8.53;84.28;99503.84;4026142;29;19971;-68
2023/11/10 05:22:51;;;;;;;;;;;;;;;8.54;84.03;99511.72;4027068;29;19976;-70
2023/11/10 05:24:54;;;;;;;;;;;;;;;8.54;84.36;99503.63;4024988;29;20047;-67
2023/11/10 05:26:56;;;;;;;;;;;;;;;8.55;84.35;99509.84;4026464;29;20613;-66
2023/11/10 05:28:58;;;;;;;;;;;;;;;8.56;84.11;99515.03;4026852;29;20494;-68
2023/11/10 05:31:00;;;;;;;;;;;;;;;8.58;83.95;99514.84;4023830;29;20026;-70
2023/11/10 05:33:03;;;;;;;;;;;;;;;8.58;84.19;99515.66;4023968;29;20026;-66
2023/11/10 05:35:08;;;;;;;;;;;;;;;8.60;83.81;99512.78;4026027;29;20028;-71
2023/11/10 05:37:10;;;;;;;;;;;;;;;8.60;83.96;99510.91;4028023;29;20018;-68
2023/11/10 05:39:12;;;;;;;;;;;;;;;8.61;83.86;99517.97;4026137;29;20019;-68
2023/11/10 05:41:15;;;;;;;;;;;;;;;8.60;84.09;99510.09;4027657;29;20352;-66
2023/11/10 05:43:17;;;;;;;;;;;;;;;8.61;84.08;99514.44;4027912;29;20036;-67
2023/11/10 05:45:19;;;;;;;;;;;;;;;8.60;84.01;99510.91;4027594;29;20109;-67
2023/11/10 05:47:21;;;;;;;;;;;;;;;8.60;83.91;99518.97;4027620;29;20018;-67
2023/11/10 05:49:23;;;;;;;;;;;;;;;8.60;84.25;99521.66;4027674;29;20382;-67
2023/11/10 05:51:26;;;;;;;;;;;;;;;8.61;83.77;99519.84;4027945;29;20019;-68
2023/11/10 05:53:28;;;;;;;;;;;;;;;8.61;84.05;99528.72;4027473;29;20034;-68
2023/11/10 05:55:32;;;;;;;;;;;;;;;8.62;83.89;99532.25;4028165;29;20415;-67
2023/11/10 05:57:36;;;;;;;;;;;;;;;8.60;83.74;99539.69;4028222;29;20040;-69
2023/11/10 05:59:37;;;;;;;;;;;;;;;8.60;83.55;99545.06;4027635;29;20011;-68
2023/11/10 06:01:39;;;;;;;;;;;;;;;8.59;83.58;99541.56;4028476;29;20023;-68
2023/11/10 06:03:41;;;;;;;;;;;;;;;8.58;83.82;99547.97;4027781;29;20595;-67
2023/11/10 06:05:43;;;;;;;;;;;;;;;8.56;83.68;99544.63;4028116;29;20019;-69
2023/11/10 06:07:47;;;;;;;;;;;;;;;8.58;83.79;99550.66;4028285;29;20015;-70
2023/11/10 06:09:49;;;;;;;;;;;;;;;8.56;83.73;99550.00;4030115;29;20023;-69
2023/11/10 06:11:51;;;;;;;;;;;;;;;8.55;83.75;99545.66;4027794;29;20471;-69
2023/11/10 06:13:56;;;;;;;;;;;;;;;8.56;83.76;99552.72;4027653;29;20014;-68
2023/11/10 06:15:59;;;;;;;;;;;;;;;8.56;83.87;99550.00;4029056;29;20023;-69
2023/11/10 06:18:01;;;;;;;;;;;;;;;8.58;83.71;99553.34;4028513;29;20030;-69
2023/11/10 06:20:03;;;;;;;;;;;;;;;8.58;83.96;99558.72;4028557;29;19996;-70
2023/11/10 06:22:07;;;;;;;;;;;;;;;8.60;83.74;99555.84;4028174;29;20011;-69
2023/11/10 06:24:09;;;;;;;;;;;;;;;8.59;83.95;99552.31;4028340;29;19936;-67
2023/11/10 06:26:11;;;;;;;;;;;;;;;8.60;83.78;99556.66;4027974;29;20011;-70
2023/11/10 06:28:13;;;;;;;;;;;;;;;8.60;84.08;99553.97;4028720;29;20031;-69
2023/11/10 06:30:17;;;;;;;;;;;;;;;8.62;83.89;99553.78;4029672;29;20054;-68
2023/11/10 06:32:19;;;;;;;;;;;;;;;8.61;83.85;99544.06;3968504;29;1781098;-69
2023/11/10 06:34:22;;;;;;;;;;;;;;;8.62;83.89;99538.47;4029786;29;20455;-68
2023/11/10 06:36:24;;;;;;;;;;;;;;;8.63;83.72;99548.19;4030126;29;20046;-68
2023/11/10 06:38:26;;;;;;;;;;;;;;;8.64;83.82;99552.56;4028760;29;20450;-68
2023/11/10 06:40:28;;;;;;;;;;;;;;;8.65;83.93;99553.38;4029390;29;20014;-69
2023/11/10 06:42:33;;;;;;;;;;;;;;;8.65;83.91;99556.09;4029133;29;20821;-68
2023/11/10 06:44:37;;;;;;;;;;;;;;;8.65;83.72;99558.78;4028197;29;20498;-69
2023/11/10 06:46:40;;;;;;;;;;;;;;;8.66;83.72;99563.97;4028696;29;20018;-69
2023/11/10 06:48:42;;;;;;;;;;;;;;;8.67;83.75;99556.75;4029092;29;20027;-69
2023/11/10 06:50:44;;;;;;;;;;;;;;;8.66;83.64;99563.97;4028476;29;20022;-70
2023/11/10 06:52:46;;;;;;;;;;;;;;;8.67;83.60;99562.13;4029540;29;20034;-71
2023/11/10 06:54:48;;;;;;;;;;;;;;;8.68;83.84;99557.56;4029324;29;20680;-70
2023/11/10 06:56:53;;;;;;;;;;;;;;;8.68;83.83;99562.94;4029393;29;20039;-70
2023/11/10 06:58:55;;;;;;;;;;;;;;;8.69;83.73;99561.94;4028766;29;20488;-69
2023/11/10 07:00:58;;;;;;;;;;;;;;;8.70;83.49;99552.81;4028941;29;20023;-68
2023/11/10 07:03:01;;;;;;;;;;;;;;;8.70;83.52;99556.34;4028008;29;20003;-69
2023/11/10 07:05:03;;;;;;;;;;;;;;;8.71;83.64;99558.00;4026911;29;19963;-71
2023/11/10 07:07:05;;;;;;;;;;;;;;;8.74;83.73;99562.19;4026626;29;20382;-68
2023/11/10 07:09:07;;;;;;;;;;;;;;;8.75;83.64;99558.47;4027080;29;20015;-69
2023/11/10 07:11:10;;;;;;;;;;;;;;;8.75;83.37;99553.91;4026145;29;20039;-72
2023/11/10 07:13:13;;;;;;;;;;;;;;;8.77;83.26;99568.00;4027706;29;20030;-69
2023/11/10 07:15:15;;;;;;;;;;;;;;;8.78;83.33;99566.97;4025137;29;20111;-69
2023/11/10 07:17:17;;;;;;;;;;;;;;;8.79;83.05;99562.41;4028461;29;20019;-69
2023/11/10 07:19:21;;;;;;;;;;;;;;;8.81;83.17;99571.97;4026645;29;20043;-68
2023/11/10 07:21:23;;;;;;;;;;;;;;;8.82;83.17;99572.81;4027882;29;20027;-68
2023/11/10 07:23:25;;;;;;;;;;;;;;;8.83;82.87;99571.78;4027205;29;20031;-68
2023/11/10 07:25:27;;;;;;;;;;;;;;;8.89;83.05;99571.00;4026890;29;19932;-68
2023/11/10 07:27:30;;;;;;;;;;;;;;;8.88;83.01;99574.72;4026702;29;20039;-70
2023/11/10 07:29:33;;;;;;;;;;;;;;;8.90;82.47;99574.53;4025843;29;20450;-71
2023/11/10 07:31:35;;;;;;;;;;;;;;;8.92;82.28;99576.00;4026262;29;20024;-70
2023/11/10 07:33:37;;;;;;;;;;;;;;;8.94;82.35;99565.84;4025291;29;20023;-69
2023/11/10 07:35:42;;;;;;;;;;;;;;;8.94;81.96;99576.63;4027386;29;20032;-70
2023/11/10 07:37:45;;;;;;;;;;;;;;;8.96;81.97;99571.06;4027431;29;20026;-70
2023/11/10 07:39:47;;;;;;;;;;;;;;;8.99;81.95;99586.81;4027311;29;20038;-69
2023/11/10 07:41:49;;;;;;;;;;;;;;;9.02;81.59;99573.78;4027801;29;20035;-68
2023/11/10 07:43:51;;;;;;;;;;;;;;;9.04;81.53;99572.78;4027278;29;20635;-68
2023/11/10 07:45:54;;;;;;;;;;;;;;;9.04;81.30;99576.28;4028161;29;20002;-68
2023/11/10 07:47:56;;;;;;;;;;;;;;;9.04;81.06;99581.66;4028062;29;20010;-69
2023/11/10 07:49:57;;;;;;;;;;;;;;;9.06;81.25;99576.94;4026572;29;20035;-70
2023/11/10 07:52:01;;;;;;;;;;;;;;;9.07;80.80;99569.69;4038813;29;20019;-69
2023/11/10 07:54:03;;;;;;;;;;;;;;;9.07;80.63;99573.19;4025977;29;20020;-68
2023/11/10 07:56:05;;;;;;;;;;;;;;;9.11;80.87;99566.41;4026900;29;20015;-68
2023/11/10 07:58:07;;;;;;;;;;;;;;;9.14;80.44;99563.31;4027897;29;20022;-69
2023/11/10 08:00:11;;;;;;;;;;;;;;;9.14;80.52;99557.13;4025201;29;20022;-69
2023/11/10 08:02:18;;;;;;;;;;;;;;;9.15;80.28;99561.44;4027619;29;20019;-68
2023/11/10 08:04:21;;;;;;;;;;;;;;;9.14;80.14;99560.63;4027876;29;20008;-70
2023/11/10 08:06:23;;;;;;;;;;;;;;;9.19;79.80;99560.88;4027027;29;19927;-71
2023/11/10 08:08:27;;;;;;;;;;;;;;;9.24;79.69;99562.16;4027231;29;20023;-69
2023/11/10 08:10:30;;;;;;;;;;;;;;;9.26;79.50;99565.47;4026967;29;20035;-70
2023/11/10 08:12:31;;;;;;;;;;;;;;;9.28;79.02;99569.63;4026603;29;20035;-73
2023/11/10 08:14:33;;;;;;;;;;;;;;;9.32;79.16;99575.44;4026279;29;20026;-68
2023/11/10 08:16:35;;;;;;;;;;;;;;;9.33;78.84;99580.66;4027101;29;20019;-69
2023/11/10 08:18:38;;;;;;;;;;;;;;;9.38;78.69;99578.19;4027701;29;20015;-68
2023/11/10 08:20:40;;;;;;;;;;;;;;;9.41;78.31;99579.66;4028706;29;20026;-69
2023/11/10 08:22:41;;;;;;;;;;;;;;;9.44;78.22;99583.84;4027070;29;20023;-70
2023/11/10 08:24:44;;;;;;;;;;;;;;;9.47;78.04;99578.03;4028054;29;20016;-69
2023/11/10 08:26:47;;;;;;;;;;;;;;;9.50;77.94;99566.88;4027839;29;20388;-68
2023/11/10 08:28:49;;;;;;;;;;;;;;;9.55;77.51;99570.63;4028217;29;20026;-68
2023/11/10 08:30:51;;;;;;;;;;;;;;;9.60;77.23;99567.31;4027155;29;20023;-68
2023/11/10 08:32:54;;;;;;;;;;;;;;;9.63;77.15;99577.72;4026421;29;20375;-68
2023/11/10 08:34:57;;;;;;;;;;;;;;;9.69;77.13;99584.19;4026445;29;20018;-68
2023/11/10 08:36:59;;;;;;;;;;;;;;;9.75;76.73;99580.69;4027680;29;20018;-67
2023/11/10 08:39:01;;;;;;;;;;;;;;;9.81;76.94;99582.59;4027147;29;20027;-68
2023/11/10 08:41:05;;;;;;;;;;;;;;;9.86;76.40;99585.50;4027744;29;20027;-68
2023/11/10 08:43:07;;;;;;;;;;;;;;;9.91;76.54;99593.00;4026100;29;20370;-70
2023/11/10 08:45:08;;;;;;;;;;;;;;;9.96;76.50;99597.78;4040777;29;20399;-68
2023/11/10 08:47:10;;;;;;;;;;;;;;;10.00;76.21;99594.47;4027255;29;20459;-69
2023/11/10 08:49:12;;;;;;;;;;;;;;;10.04;76.12;99595.72;4025838;29;20073;-69
2023/11/10 08:51:15;;;;;;;;;;;;;;;10.08;75.84;99594.31;4026061;29;20022;-69
2023/11/10 08:53:18;;;;;;;;;;;;;;;10.12;75.55;99585.81;4026779;29;20055;-68
2023/11/10 08:55:21;;;;;;;;;;;;;;;10.14;75.15;99597.22;4026804;29;20023;-69
2023/11/10 08:57:23;;;;;;;;;;;;;;;10.16;75.13;99598.69;4025881;29;20023;-69
2023/11/10 08:59:25;;;;;;;;;;;;;;;10.18;75.20;99598.50;4028261;29;20027;-69
2023/11/10 09:01:27;;;;;;;;;;;;;;;10.18;75.10;99599.31;4028240;29;20011;-69
2023/11/10 09:03:29;;;;;;;;;;;;;;;10.20;75.02;99605.34;4027234;29;20526;-68
2023/11/10 09:05:31;;;;;;;;;;;;;;;10.23;74.73;99604.09;4041306;29;20034;-69
2023/11/10 09:07:34;;;;;;;;;;;;;;;10.25;74.39;99607.41;4026077;29;20475;-71
2023/11/10 09:09:36;;;;;;;;;;;;;;;10.27;74.42;99603.50;4029883;29;20007;-70
2023/11/10 09:11:38;;;;;;;;;;;;;;;10.28;74.22;99597.06;4031137;29;20373;-70
2023/11/10 09:13:41;;;;;;;;;;;;;;;10.30;74.31;99596.88;4029998;29;20023;-69
2023/11/10 09:15:43;;;;;;;;;;;;;;;10.31;74.00;99595.81;4031456;29;20031;-70
2023/11/10 09:17:44;;;;;;;;;;;;;;;10.33;73.96;99598.34;4031703;29;20014;-68
2023/11/10 09:19:47;;;;;;;;;;;;;;;10.34;74.18;99598.13;4031693;29;19928;-71
2023/11/10 09:21:50;;;;;;;;;;;;;;;10.35;74.05;99588.19;4030121;29;20038;-69
2023/11/10 09:23:52;;;;;;;;;;;;;;;10.37;73.84;99583.41;4031081;29;20015;-69
2023/11/10 09:25:56;;;;;;;;;;;;;;;10.37;73.93;99583.41;4031637;29;20000;-68
2023/11/10 09:27:57;;;;;;;;;;;;;;;10.39;73.89;99584.88;4032451;29;19932;-69
2023/11/10 09:30:00;;;;;;;;;;;;;;;10.41;73.95;99590.09;4030359;29;20023;-67
2023/11/10 09:32:03;;;;;;;;;;;;;;;10.43;73.83;99588.81;4030573;29;20066;-68
2023/11/10 09:34:04;;;;;;;;;;;;;;;10.44;74.08;99578.88;4030729;29;20058;-69
2023/11/10 09:36:08;;;;;;;;;;;;;;;10.44;73.79;99585.09;4030018;29;20503;-68
2023/11/10 09:38:10;;;;;;;;;;;;;;;10.46;73.70;99593.81;4030024;29;20010;-68
2023/11/10 09:40:13;;;;;;;;;;;;;;;10.45;73.88;99586.78;4029279;29;20035;-70
2023/11/10 09:42:14;;;;;;;;;;;;;;;10.46;74.05;99580.31;4029945;29;20039;-68
2023/11/10 09:44:16;;;;;;;;;;;;;;;10.48;73.85;99587.38;4029900;29;20048;-68
2023/11/10 09:46:20;;;;;;;;;;;;;;;10.49;74.13;99581.78;4030529;29;20019;-69
2023/11/10 09:48:22;;;;;;;;;;;;;;;10.51;73.86;99586.97;4030136;29;19939;-70
2023/11/10 09:50:25;;;;;;;;;;;;;;;10.51;73.68;99574.31;4029859;29;20467;-69
2023/11/10 09:52:28;;;;;;;;;;;;;;;10.52;73.80;99594.06;4030304;29;20649;-70
2023/11/10 09:54:31;;;;;;;;;;;;;;;10.52;73.98;99583.25;4030247;29;20897;-69
2023/11/10 09:56:35;;;;;;;;;;;;;;;10.51;74.01;99573.47;4029884;29;20012;-70
2023/11/10 09:58:37;;;;;;;;;;;;;;;10.51;74.11;99578.88;4029648;29;20023;-69
2023/11/10 10:00:39;;;;;;;;;;;;;;;10.51;74.11;99582.41;4030048;29;20026;-69
2023/11/10 10:02:43;;;;;;;;;;;;;;;10.51;74.13;99578.88;4029393;29;20015;-68
2023/11/10 10:04:45;;;;;;;;;;;;;;;10.51;74.21;99581.56;4029773;29;20040;-70
2023/11/10 10:06:47;;;;;;;;;;;;;;;10.51;74.26;99578.88;4030118;29;20475;-69
2023/11/10 10:08:49;;;;;;;;;;;;;;;10.50;74.12;99578.06;4029650;29;19928;-70
2023/11/10 10:10:51;;;;;;;;;;;;;;;10.49;74.34;99581.78;4029542;29;19928;-69
2023/11/10 10:12:53;;;;;;;;;;;;;;;10.52;74.18;99577.84;4029356;29;20026;-68
2023/11/10 10:14:56;;;;;;;;;;;;;;;10.51;74.00;99574.31;4029072;29;20026;-70
2023/11/10 10:16:58;;;;;;;;;;;;;;;10.52;74.00;99569.75;4029631;29;20015;-71
2023/11/10 10:19:04;;;;;;;;;;;;;;;10.52;74.22;99585.94;4024165;29;20019;-74
2023/11/10 10:21:06;;;;;;;;;;;;;;;10.51;74.01;99568.91;4027631;29;20091;-69
2023/11/10 10:23:09;;;;;;;;;;;;;;;10.52;73.93;99572.47;4024054;29;20028;-70
2023/11/10 10:25:12;;;;;;;;;;;;;;;10.51;73.95;99560.81;4026986;29;20038;-68
2023/11/10 10:27:15;;;;;;;;;;;;;;;10.51;74.05;99558.09;4026372;29;20039;-72
2023/11/10 10:29:18;;;;;;;;;;;;;;;10.51;74.11;99566.19;4027089;29;19928;-70
2023/11/10 10:31:20;;;;;;;;;;;;;;;10.50;73.95;99569.97;4028672;29;21239;-68
2023/11/10 10:33:22;;;;;;;;;;;;;;;10.50;74.00;99575.34;4029219;29;20019;-69
2023/11/10 10:35:26;;;;;;;;;;;;;;;10.51;74.01;99570.78;4028759;29;20038;-68
2023/11/10 10:37:29;;;;;;;;;;;;;;;10.51;74.04;99559.97;4025120;29;20030;-69
2023/11/10 10:39:31;;;;;;;;;;;;;;;10.50;74.21;99567.25;4027145;29;20035;-72
2023/11/10 10:41:32;;;;;;;;;;;;;;;10.51;74.01;99568.09;4027280;29;20034;-70
2023/11/10 10:43:34;;;;;;;;;;;;;;;10.50;74.09;99564.56;4028339;29;20042;-70